sensor_id;sensor_type;location;lat;lon;timestamp;P1;durP1;ratioP1;P2;durP2;ratioP2
76652;SDS011;65563;45.970;12.680;2023-08-07T00:00:51;1.27;;;0.80;;
76652;SDS011;65563;45.970;12.680;2023-08-07T00:01:52;1.77;;;0.77;;
76652;SDS011;65563;45.970;12.680;2023-08-07T00:02:52;2.47;;;1.00;;
76652;SDS011;65563;45.970;12.680;2023-08-07T00:03:52;1.73;;;0.93;;
76652;SDS011;65563;45.970;12.680;2023-08-07T00:04:53;1.63;;;1.00;;
76652;SDS011;65563;45.970;12.680;2023-08-07T00:05:53;2.30;;;0.82;;
76652;SDS011;65563;45.970;12.680;2023-08-07T00:06:53;2.58;;;1.15;;
76652;SDS011;65563;45.970;12.680;2023-08-07T00:07:54;1.00;;;0.88;;
76652;SDS011;65563;45.970;12.680;2023-08-07T00:08:54;2.13;;;0.95;;
76652;SDS011;65563;45.970;12.680;2023-08-07T00:09:55;2.03;;;0.95;;
76652;SDS011;65563;45.970;12.680;2023-08-07T00:11:04;1.33;;;0.80;;
76652;SDS011;65563;45.970;12.680;2023-08-07T00:12:08;2.60;;;1.23;;
76652;SDS011;65563;45.970;12.680;2023-08-07T00:13:08;1.63;;;0.90;;
76652;SDS011;65563;45.970;12.680;2023-08-07T00:14:09;2.60;;;0.80;;
76652;SDS011;65563;45.970;12.680;2023-08-07T00:15:09;3.75;;;0.77;;
76652;SDS011;65563;45.970;12.680;2023-08-07T00:16:10;1.70;;;1.00;;
76652;SDS011;65563;45.970;12.680;2023-08-07T00:17:10;4.55;;;1.05;;
76652;SDS011;65563;45.970;12.680;2023-08-07T00:18:10;1.63;;;0.90;;
76652;SDS011;65563;45.970;12.680;2023-08-07T00:19:11;2.22;;;0.95;;
76652;SDS011;65563;45.970;12.680;2023-08-07T00:20:11;3.20;;;1.00;;
76652;SDS011;65563;45.970;12.680;2023-08-07T00:21:12;1.65;;;1.15;;
76652;SDS011;65563;45.970;12.680;2023-08-07T00:22:12;1.70;;;0.85;;
76652;SDS011;65563;45.970;12.680;2023-08-07T00:23:12;1.45;;;0.68;;
76652;SDS011;65563;45.970;12.680;2023-08-07T00:24:13;2.35;;;0.73;;
76652;SDS011;65563;45.970;12.680;2023-08-07T00:25:13;2.00;;;0.73;;
76652;SDS011;65563;45.970;12.680;2023-08-07T00:26:13;1.25;;;0.80;;
76652;SDS011;65563;45.970;12.680;2023-08-07T00:27:14;2.63;;;0.80;;
76652;SDS011;65563;45.970;12.680;2023-08-07T00:28:14;1.63;;;0.70;;
76652;SDS011;65563;45.970;12.680;2023-08-07T00:29:15;1.70;;;0.80;;
76652;SDS011;65563;45.970;12.680;2023-08-07T00:30:15;0.77;;;0.70;;
76652;SDS011;65563;45.970;12.680;2023-08-07T00:31:15;0.95;;;0.60;;
76652;SDS011;65563;45.970;12.680;2023-08-07T00:32:16;0.73;;;0.65;;
76652;SDS011;65563;45.970;12.680;2023-08-07T00:33:16;2.33;;;0.90;;
76652;SDS011;65563;45.970;12.680;2023-08-07T00:34:16;1.85;;;0.70;;
76652;SDS011;65563;45.970;12.680;2023-08-07T00:35:17;1.02;;;0.70;;
76652;SDS011;65563;45.970;12.680;2023-08-07T00:36:17;0.70;;;0.70;;
76652;SDS011;65563;45.970;12.680;2023-08-07T00:37:17;2.35;;;0.80;;
76652;SDS011;65563;45.970;12.680;2023-08-07T00:38:18;2.42;;;0.77;;
76652;SDS011;65563;45.970;12.680;2023-08-07T00:39:18;2.80;;;0.80;;
76652;SDS011;65563;45.970;12.680;2023-08-07T00:40:18;1.15;;;0.68;;
76652;SDS011;65563;45.970;12.680;2023-08-07T00:41:19;4.88;;;0.95;;
76652;SDS011;65563;45.970;12.680;2023-08-07T00:42:20;2.45;;;0.95;;
76652;SDS011;65563;45.970;12.680;2023-08-07T00:43:20;0.88;;;0.80;;
76652;SDS011;65563;45.970;12.680;2023-08-07T00:44:21;0.80;;;0.80;;
76652;SDS011;65563;45.970;12.680;2023-08-07T00:45:21;1.10;;;0.80;;
76652;SDS011;65563;45.970;12.680;2023-08-07T00:46:21;1.13;;;0.80;;
76652;SDS011;65563;45.970;12.680;2023-08-07T00:47:22;1.95;;;0.90;;
76652;SDS011;65563;45.970;12.680;2023-08-07T00:48:22;2.25;;;1.08;;
76652;SDS011;65563;45.970;12.680;2023-08-07T00:49:23;2.25;;;1.27;;
76652;SDS011;65563;45.970;12.680;2023-08-07T00:50:23;2.13;;;1.00;;
76652;SDS011;65563;45.970;12.680;2023-08-07T00:51:24;1.10;;;1.00;;
76652;SDS011;65563;45.970;12.680;2023-08-07T00:52:24;2.30;;;1.02;;
76652;SDS011;65563;45.970;12.680;2023-08-07T00:53:25;1.58;;;0.77;;
76652;SDS011;65563;45.970;12.680;2023-08-07T00:54:26;1.45;;;0.90;;
76652;SDS011;65563;45.970;12.680;2023-08-07T00:55:26;1.35;;;0.65;;
76652;SDS011;65563;45.970;12.680;2023-08-07T00:56:27;0.80;;;0.80;;
76652;SDS011;65563;45.970;12.680;2023-08-07T00:57:28;1.10;;;0.80;;
76652;SDS011;65563;45.970;12.680;2023-08-07T00:58:29;1.08;;;0.80;;
76652;SDS011;65563;45.970;12.680;2023-08-07T00:59:29;0.77;;;0.77;;
76652;SDS011;65563;45.970;12.680;2023-08-07T01:00:30;1.08;;;0.90;;
76652;SDS011;65563;45.970;12.680;2023-08-07T01:01:30;3.55;;;0.95;;
76652;SDS011;65563;45.970;12.680;2023-08-07T01:02:31;0.82;;;0.80;;
76652;SDS011;65563;45.970;12.680;2023-08-07T01:03:31;1.92;;;0.90;;
76652;SDS011;65563;45.970;12.680;2023-08-07T01:04:32;2.15;;;0.80;;
76652;SDS011;65563;45.970;12.680;2023-08-07T01:05:32;0.98;;;0.90;;
76652;SDS011;65563;45.970;12.680;2023-08-07T01:06:33;2.45;;;1.00;;
76652;SDS011;65563;45.970;12.680;2023-08-07T01:07:34;1.35;;;0.95;;
76652;SDS011;65563;45.970;12.680;2023-08-07T01:08:34;2.45;;;0.90;;
76652;SDS011;65563;45.970;12.680;2023-08-07T01:09:35;4.15;;;1.58;;
76652;SDS011;65563;45.970;12.680;2023-08-07T01:13:35;2.05;;;0.80;;
76652;SDS011;65563;45.970;12.680;2023-08-07T01:14:52;2.85;;;0.93;;
76652;SDS011;65563;45.970;12.680;2023-08-07T01:15:59;1.13;;;0.90;;
76652;SDS011;65563;45.970;12.680;2023-08-07T01:18:14;3.45;;;0.80;;
76652;SDS011;65563;45.970;12.680;2023-08-07T01:19:19;4.10;;;1.20;;
76652;SDS011;65563;45.970;12.680;2023-08-07T01:20:26;2.38;;;0.80;;
76652;SDS011;65563;45.970;12.680;2023-08-07T01:21:27;0.60;;;0.60;;
76652;SDS011;65563;45.970;12.680;2023-08-07T01:22:27;1.42;;;0.90;;
76652;SDS011;65563;45.970;12.680;2023-08-07T01:23:27;2.35;;;1.00;;
76652;SDS011;65563;45.970;12.680;2023-08-07T01:24:28;2.22;;;0.82;;
76652;SDS011;65563;45.970;12.680;2023-08-07T01:25:28;2.00;;;0.90;;
76652;SDS011;65563;45.970;12.680;2023-08-07T01:26:28;3.25;;;0.90;;
76652;SDS011;65563;45.970;12.680;2023-08-07T01:27:44;1.25;;;0.73;;
76652;SDS011;65563;45.970;12.680;2023-08-07T01:29:04;1.00;;;0.73;;
76652;SDS011;65563;45.970;12.680;2023-08-07T01:30:35;0.70;;;0.63;;
76652;SDS011;65563;45.970;12.680;2023-08-07T01:31:37;1.25;;;0.77;;
76652;SDS011;65563;45.970;12.680;2023-08-07T01:33:59;1.45;;;0.75;;
76652;SDS011;65563;45.970;12.680;2023-08-07T01:35:04;0.60;;;0.60;;
76652;SDS011;65563;45.970;12.680;2023-08-07T01:36:06;1.77;;;1.05;;
76652;SDS011;65563;45.970;12.680;2023-08-07T01:37:09;2.15;;;0.80;;
76652;SDS011;65563;45.970;12.680;2023-08-07T01:38:12;1.65;;;0.73;;
76652;SDS011;65563;45.970;12.680;2023-08-07T01:39:13;1.13;;;0.77;;
76652;SDS011;65563;45.970;12.680;2023-08-07T01:40:14;2.88;;;0.95;;
76652;SDS011;65563;45.970;12.680;2023-08-07T01:41:16;1.33;;;0.60;;
76652;SDS011;65563;45.970;12.680;2023-08-07T01:42:17;0.90;;;0.73;;
76652;SDS011;65563;45.970;12.680;2023-08-07T01:43:18;0.77;;;0.77;;
76652;SDS011;65563;45.970;12.680;2023-08-07T01:44:18;2.13;;;0.70;;
76652;SDS011;65563;45.970;12.680;2023-08-07T01:45:23;0.60;;;0.60;;
76652;SDS011;65563;45.970;12.680;2023-08-07T01:46:26;0.65;;;0.65;;
76652;SDS011;65563;45.970;12.680;2023-08-07T01:47:27;1.38;;;0.80;;
76652;SDS011;65563;45.970;12.680;2023-08-07T01:48:27;1.05;;;0.70;;
76652;SDS011;65563;45.970;12.680;2023-08-07T01:49:27;1.02;;;0.65;;
76652;SDS011;65563;45.970;12.680;2023-08-07T01:50:28;1.15;;;0.77;;
76652;SDS011;65563;45.970;12.680;2023-08-07T01:51:29;1.85;;;0.57;;
76652;SDS011;65563;45.970;12.680;2023-08-07T01:52:29;0.80;;;0.75;;
76652;SDS011;65563;45.970;12.680;2023-08-07T01:53:29;1.00;;;0.80;;
76652;SDS011;65563;45.970;12.680;2023-08-07T01:54:30;1.33;;;0.65;;
76652;SDS011;65563;45.970;12.680;2023-08-07T01:55:30;3.33;;;0.75;;
76652;SDS011;65563;45.970;12.680;2023-08-07T01:56:31;0.80;;;0.70;;
76652;SDS011;65563;45.970;12.680;2023-08-07T01:57:31;0.70;;;0.70;;
76652;SDS011;65563;45.970;12.680;2023-08-07T01:58:31;2.67;;;0.57;;
76652;SDS011;65563;45.970;12.680;2023-08-07T01:59:32;2.90;;;0.70;;
76652;SDS011;65563;45.970;12.680;2023-08-07T02:00:32;1.25;;;0.50;;
76652;SDS011;65563;45.970;12.680;2023-08-07T02:01:32;1.60;;;0.60;;
76652;SDS011;65563;45.970;12.680;2023-08-07T02:02:33;0.95;;;0.50;;
76652;SDS011;65563;45.970;12.680;2023-08-07T02:03:33;0.95;;;0.63;;
76652;SDS011;65563;45.970;12.680;2023-08-07T02:04:33;1.02;;;0.60;;
76652;SDS011;65563;45.970;12.680;2023-08-07T02:05:34;1.05;;;0.65;;
76652;SDS011;65563;45.970;12.680;2023-08-07T02:06:34;2.15;;;0.80;;
76652;SDS011;65563;45.970;12.680;2023-08-07T02:07:34;0.68;;;0.60;;
76652;SDS011;65563;45.970;12.680;2023-08-07T02:08:35;0.60;;;0.60;;
76652;SDS011;65563;45.970;12.680;2023-08-07T02:09:35;1.17;;;0.70;;
76652;SDS011;65563;45.970;12.680;2023-08-07T02:10:36;0.70;;;0.68;;
76652;SDS011;65563;45.970;12.680;2023-08-07T02:11:36;1.85;;;0.50;;
76652;SDS011;65563;45.970;12.680;2023-08-07T02:12:37;2.08;;;0.77;;
76652;SDS011;65563;45.970;12.680;2023-08-07T02:13:37;0.80;;;0.80;;
76652;SDS011;65563;45.970;12.680;2023-08-07T02:14:37;1.50;;;0.60;;
76652;SDS011;65563;45.970;12.680;2023-08-07T02:15:38;3.83;;;0.60;;
76652;SDS011;65563;45.970;12.680;2023-08-07T02:16:38;1.40;;;0.68;;
76652;SDS011;65563;45.970;12.680;2023-08-07T02:17:38;0.55;;;0.55;;
76652;SDS011;65563;45.970;12.680;2023-08-07T02:18:39;2.05;;;0.60;;
76652;SDS011;65563;45.970;12.680;2023-08-07T02:19:39;1.70;;;0.70;;
76652;SDS011;65563;45.970;12.680;2023-08-07T02:20:39;2.05;;;0.60;;
76652;SDS011;65563;45.970;12.680;2023-08-07T02:21:40;2.53;;;0.70;;
76652;SDS011;65563;45.970;12.680;2023-08-07T02:22:40;1.25;;;0.80;;
76652;SDS011;65563;45.970;12.680;2023-08-07T02:23:41;1.50;;;0.63;;
76652;SDS011;65563;45.970;12.680;2023-08-07T02:24:41;0.80;;;0.63;;
76652;SDS011;65563;45.970;12.680;2023-08-07T02:25:41;1.02;;;0.70;;
76652;SDS011;65563;45.970;12.680;2023-08-07T02:26:42;1.45;;;0.70;;
76652;SDS011;65563;45.970;12.680;2023-08-07T02:27:42;0.77;;;0.63;;
76652;SDS011;65563;45.970;12.680;2023-08-07T02:28:43;1.45;;;0.65;;
76652;SDS011;65563;45.970;12.680;2023-08-07T02:29:43;2.80;;;1.05;;
76652;SDS011;65563;45.970;12.680;2023-08-07T02:30:45;0.60;;;0.60;;
76652;SDS011;65563;45.970;12.680;2023-08-07T02:31:46;2.35;;;0.75;;
76652;SDS011;65563;45.970;12.680;2023-08-07T02:32:46;1.55;;;0.65;;
76652;SDS011;65563;45.970;12.680;2023-08-07T02:33:46;1.75;;;0.80;;
76652;SDS011;65563;45.970;12.680;2023-08-07T02:34:47;0.50;;;0.50;;
76652;SDS011;65563;45.970;12.680;2023-08-07T02:35:47;1.25;;;0.80;;
76652;SDS011;65563;45.970;12.680;2023-08-07T02:36:47;4.50;;;1.17;;
76652;SDS011;65563;45.970;12.680;2023-08-07T02:37:48;1.50;;;0.88;;
76652;SDS011;65563;45.970;12.680;2023-08-07T02:38:48;1.40;;;0.80;;
76652;SDS011;65563;45.970;12.680;2023-08-07T02:39:49;2.15;;;0.70;;
76652;SDS011;65563;45.970;12.680;2023-08-07T02:40:49;1.58;;;0.80;;
76652;SDS011;65563;45.970;12.680;2023-08-07T02:41:49;0.93;;;0.70;;
76652;SDS011;65563;45.970;12.680;2023-08-07T02:42:50;0.80;;;0.70;;
76652;SDS011;65563;45.970;12.680;2023-08-07T02:43:50;0.65;;;0.65;;
76652;SDS011;65563;45.970;12.680;2023-08-07T02:44:50;2.08;;;0.70;;
76652;SDS011;65563;45.970;12.680;2023-08-07T02:45:51;0.85;;;0.60;;
76652;SDS011;65563;45.970;12.680;2023-08-07T02:46:51;0.88;;;0.50;;
76652;SDS011;65563;45.970;12.680;2023-08-07T02:47:51;0.82;;;0.60;;
76652;SDS011;65563;45.970;12.680;2023-08-07T02:48:52;1.42;;;0.50;;
76652;SDS011;65563;45.970;12.680;2023-08-07T02:49:52;2.53;;;0.68;;
76652;SDS011;65563;45.970;12.680;2023-08-07T02:50:52;3.53;;;0.68;;
76652;SDS011;65563;45.970;12.680;2023-08-07T02:51:53;2.28;;;0.55;;
76652;SDS011;65563;45.970;12.680;2023-08-07T02:52:53;0.63;;;0.43;;
76652;SDS011;65563;45.970;12.680;2023-08-07T02:53:53;1.60;;;1.00;;
76652;SDS011;65563;45.970;12.680;2023-08-07T02:54:54;0.88;;;0.70;;
76652;SDS011;65563;45.970;12.680;2023-08-07T02:55:54;0.57;;;0.57;;
76652;SDS011;65563;45.970;12.680;2023-08-07T02:56:55;0.95;;;0.60;;
76652;SDS011;65563;45.970;12.680;2023-08-07T02:57:56;0.98;;;0.60;;
76652;SDS011;65563;45.970;12.680;2023-08-07T02:58:56;0.80;;;0.65;;
76652;SDS011;65563;45.970;12.680;2023-08-07T02:59:56;1.40;;;0.60;;
76652;SDS011;65563;45.970;12.680;2023-08-07T03:01:02;1.52;;;0.60;;
76652;SDS011;65563;45.970;12.680;2023-08-07T03:02:06;0.82;;;0.60;;
76652;SDS011;65563;45.970;12.680;2023-08-07T03:03:06;1.48;;;0.60;;
76652;SDS011;65563;45.970;12.680;2023-08-07T03:04:06;1.50;;;0.70;;
76652;SDS011;65563;45.970;12.680;2023-08-07T03:05:07;1.08;;;0.57;;
76652;SDS011;65563;45.970;12.680;2023-08-07T03:06:08;0.50;;;0.50;;
76652;SDS011;65563;45.970;12.680;2023-08-07T03:07:08;0.57;;;0.57;;
76652;SDS011;65563;45.970;12.680;2023-08-07T03:08:08;1.20;;;0.93;;
76652;SDS011;65563;45.970;12.680;2023-08-07T03:09:09;1.80;;;0.93;;
76652;SDS011;65563;45.970;12.680;2023-08-07T03:10:09;0.57;;;0.50;;
76652;SDS011;65563;45.970;12.680;2023-08-07T03:11:09;0.60;;;0.60;;
76652;SDS011;65563;45.970;12.680;2023-08-07T03:12:10;1.38;;;0.60;;
76652;SDS011;65563;45.970;12.680;2023-08-07T03:13:10;0.60;;;0.50;;
76652;SDS011;65563;45.970;12.680;2023-08-07T03:14:10;0.60;;;0.50;;
76652;SDS011;65563;45.970;12.680;2023-08-07T03:15:11;2.33;;;0.70;;
76652;SDS011;65563;45.970;12.680;2023-08-07T03:16:11;0.73;;;0.57;;
76652;SDS011;65563;45.970;12.680;2023-08-07T03:17:12;0.57;;;0.50;;
76652;SDS011;65563;45.970;12.680;2023-08-07T03:18:12;0.50;;;0.50;;
76652;SDS011;65563;45.970;12.680;2023-08-07T03:19:12;1.88;;;0.73;;
76652;SDS011;65563;45.970;12.680;2023-08-07T03:20:13;0.50;;;0.50;;
76652;SDS011;65563;45.970;12.680;2023-08-07T03:21:13;0.77;;;0.70;;
76652;SDS011;65563;45.970;12.680;2023-08-07T03:22:13;1.75;;;0.60;;
76652;SDS011;65563;45.970;12.680;2023-08-07T03:23:14;0.95;;;0.70;;
76652;SDS011;65563;45.970;12.680;2023-08-07T03:24:14;0.50;;;0.43;;
76652;SDS011;65563;45.970;12.680;2023-08-07T03:25:15;1.10;;;0.50;;
76652;SDS011;65563;45.970;12.680;2023-08-07T03:26:15;1.15;;;0.60;;
76652;SDS011;65563;45.970;12.680;2023-08-07T03:27:15;1.23;;;0.57;;
76652;SDS011;65563;45.970;12.680;2023-08-07T03:28:16;0.68;;;0.50;;
76652;SDS011;65563;45.970;12.680;2023-08-07T03:29:17;0.80;;;0.50;;
76652;SDS011;65563;45.970;12.680;2023-08-07T03:30:17;1.05;;;0.50;;
76652;SDS011;65563;45.970;12.680;2023-08-07T03:31:17;1.05;;;0.65;;
76652;SDS011;65563;45.970;12.680;2023-08-07T03:32:18;1.08;;;0.63;;
76652;SDS011;65563;45.970;12.680;2023-08-07T03:33:18;1.58;;;0.50;;
76652;SDS011;65563;45.970;12.680;2023-08-07T03:34:18;2.33;;;0.63;;
76652;SDS011;65563;45.970;12.680;2023-08-07T03:35:19;1.38;;;0.50;;
76652;SDS011;65563;45.970;12.680;2023-08-07T03:36:19;0.50;;;0.50;;
76652;SDS011;65563;45.970;12.680;2023-08-07T03:37:20;2.45;;;0.60;;
76652;SDS011;65563;45.970;12.680;2023-08-07T03:38:20;0.73;;;0.50;;
76652;SDS011;65563;45.970;12.680;2023-08-07T03:39:21;0.50;;;0.40;;
76652;SDS011;65563;45.970;12.680;2023-08-07T03:40:21;0.65;;;0.50;;
76652;SDS011;65563;45.970;12.680;2023-08-07T03:41:22;0.60;;;0.57;;
76652;SDS011;65563;45.970;12.680;2023-08-07T03:42:22;1.73;;;0.50;;
76652;SDS011;65563;45.970;12.680;2023-08-07T03:43:23;1.05;;;0.50;;
76652;SDS011;65563;45.970;12.680;2023-08-07T03:44:23;2.78;;;0.68;;
76652;SDS011;65563;45.970;12.680;2023-08-07T03:45:23;0.60;;;0.43;;
76652;SDS011;65563;45.970;12.680;2023-08-07T03:46:24;1.45;;;0.57;;
76652;SDS011;65563;45.970;12.680;2023-08-07T03:47:24;3.03;;;0.68;;
76652;SDS011;65563;45.970;12.680;2023-08-07T03:48:24;1.35;;;0.75;;
76652;SDS011;65563;45.970;12.680;2023-08-07T03:49:25;0.80;;;0.70;;
76652;SDS011;65563;45.970;12.680;2023-08-07T03:50:25;0.98;;;0.52;;
76652;SDS011;65563;45.970;12.680;2023-08-07T03:51:26;0.65;;;0.50;;
76652;SDS011;65563;45.970;12.680;2023-08-07T03:52:26;1.63;;;0.50;;
76652;SDS011;65563;45.970;12.680;2023-08-07T03:53:26;0.90;;;0.60;;
76652;SDS011;65563;45.970;12.680;2023-08-07T03:54:27;2.67;;;0.60;;
76652;SDS011;65563;45.970;12.680;2023-08-07T03:55:27;1.17;;;0.70;;
76652;SDS011;65563;45.970;12.680;2023-08-07T03:56:27;0.65;;;0.40;;
76652;SDS011;65563;45.970;12.680;2023-08-07T03:57:28;2.03;;;0.70;;
76652;SDS011;65563;45.970;12.680;2023-08-07T03:58:28;0.95;;;0.68;;
76652;SDS011;65563;45.970;12.680;2023-08-07T03:59:29;1.42;;;0.70;;
76652;SDS011;65563;45.970;12.680;2023-08-07T04:00:29;0.40;;;0.40;;
76652;SDS011;65563;45.970;12.680;2023-08-07T04:01:30;1.05;;;0.50;;
76652;SDS011;65563;45.970;12.680;2023-08-07T04:02:30;1.60;;;0.63;;
76652;SDS011;65563;45.970;12.680;2023-08-07T04:03:30;1.20;;;0.60;;
76652;SDS011;65563;45.970;12.680;2023-08-07T04:04:31;1.27;;;0.65;;
76652;SDS011;65563;45.970;12.680;2023-08-07T04:05:32;1.30;;;0.70;;
76652;SDS011;65563;45.970;12.680;2023-08-07T04:06:33;1.23;;;0.60;;
76652;SDS011;65563;45.970;12.680;2023-08-07T04:07:34;2.10;;;0.60;;
76652;SDS011;65563;45.970;12.680;2023-08-07T04:08:34;2.38;;;0.55;;
76652;SDS011;65563;45.970;12.680;2023-08-07T04:09:34;1.70;;;0.60;;
76652;SDS011;65563;45.970;12.680;2023-08-07T04:10:35;1.50;;;0.43;;
76652;SDS011;65563;45.970;12.680;2023-08-07T04:11:35;3.08;;;0.70;;
76652;SDS011;65563;45.970;12.680;2023-08-07T04:12:36;0.70;;;0.60;;
76652;SDS011;65563;45.970;12.680;2023-08-07T04:13:36;1.27;;;0.60;;
76652;SDS011;65563;45.970;12.680;2023-08-07T04:14:36;0.85;;;0.60;;
76652;SDS011;65563;45.970;12.680;2023-08-07T04:15:37;1.92;;;0.70;;
76652;SDS011;65563;45.970;12.680;2023-08-07T04:16:37;2.22;;;0.68;;
76652;SDS011;65563;45.970;12.680;2023-08-07T04:17:38;1.63;;;0.70;;
76652;SDS011;65563;45.970;12.680;2023-08-07T04:18:38;1.38;;;0.57;;
76652;SDS011;65563;45.970;12.680;2023-08-07T04:19:38;0.52;;;0.43;;
76652;SDS011;65563;45.970;12.680;2023-08-07T04:20:39;2.25;;;0.60;;
76652;SDS011;65563;45.970;12.680;2023-08-07T04:21:39;1.60;;;0.60;;
76652;SDS011;65563;45.970;12.680;2023-08-07T04:22:39;0.60;;;0.60;;
76652;SDS011;65563;45.970;12.680;2023-08-07T04:23:40;2.05;;;0.55;;
76652;SDS011;65563;45.970;12.680;2023-08-07T04:24:40;1.35;;;0.57;;
76652;SDS011;65563;45.970;12.680;2023-08-07T04:25:40;1.08;;;0.60;;
76652;SDS011;65563;45.970;12.680;2023-08-07T04:26:41;1.63;;;0.70;;
76652;SDS011;65563;45.970;12.680;2023-08-07T04:27:41;1.27;;;0.60;;
76652;SDS011;65563;45.970;12.680;2023-08-07T04:28:41;2.20;;;0.77;;
76652;SDS011;65563;45.970;12.680;2023-08-07T04:29:42;0.60;;;0.60;;
76652;SDS011;65563;45.970;12.680;2023-08-07T04:30:42;1.00;;;0.60;;
76652;SDS011;65563;45.970;12.680;2023-08-07T04:31:43;0.90;;;0.50;;
76652;SDS011;65563;45.970;12.680;2023-08-07T04:32:44;0.47;;;0.47;;
76652;SDS011;65563;45.970;12.680;2023-08-07T04:33:44;1.92;;;0.70;;
76652;SDS011;65563;45.970;12.680;2023-08-07T04:34:44;0.70;;;0.60;;
76652;SDS011;65563;45.970;12.680;2023-08-07T04:35:45;1.13;;;0.60;;
76652;SDS011;65563;45.970;12.680;2023-08-07T04:36:45;1.80;;;0.80;;
76652;SDS011;65563;45.970;12.680;2023-08-07T04:37:45;0.98;;;0.47;;
76652;SDS011;65563;45.970;12.680;2023-08-07T04:38:46;2.17;;;0.70;;
76652;SDS011;65563;45.970;12.680;2023-08-07T04:39:46;0.60;;;0.50;;
76652;SDS011;65563;45.970;12.680;2023-08-07T04:40:47;0.40;;;0.40;;
76652;SDS011;65563;45.970;12.680;2023-08-07T04:41:48;2.33;;;0.60;;
76652;SDS011;65563;45.970;12.680;2023-08-07T04:42:49;1.45;;;0.50;;
76652;SDS011;65563;45.970;12.680;2023-08-07T04:43:49;0.82;;;0.80;;
76652;SDS011;65563;45.970;12.680;2023-08-07T04:44:50;0.55;;;0.40;;
76652;SDS011;65563;45.970;12.680;2023-08-07T04:45:50;2.60;;;0.50;;
76652;SDS011;65563;45.970;12.680;2023-08-07T04:46:50;2.15;;;0.50;;
76652;SDS011;65563;45.970;12.680;2023-08-07T04:47:51;1.38;;;0.60;;
76652;SDS011;65563;45.970;12.680;2023-08-07T04:48:51;0.82;;;0.52;;
76652;SDS011;65563;45.970;12.680;2023-08-07T04:49:52;0.77;;;0.50;;
76652;SDS011;65563;45.970;12.680;2023-08-07T04:50:52;1.00;;;0.40;;
76652;SDS011;65563;45.970;12.680;2023-08-07T04:51:52;3.13;;;0.40;;
76652;SDS011;65563;45.970;12.680;2023-08-07T04:52:53;1.00;;;0.63;;
76652;SDS011;65563;45.970;12.680;2023-08-07T04:53:53;1.95;;;0.60;;
76652;SDS011;65563;45.970;12.680;2023-08-07T04:54:53;2.08;;;0.63;;
76652;SDS011;65563;45.970;12.680;2023-08-07T04:55:54;1.70;;;0.45;;
76652;SDS011;65563;45.970;12.680;2023-08-07T04:56:54;2.90;;;0.40;;
76652;SDS011;65563;45.970;12.680;2023-08-07T04:57:54;0.55;;;0.32;;
76652;SDS011;65563;45.970;12.680;2023-08-07T04:58:55;0.60;;;0.32;;
76652;SDS011;65563;45.970;12.680;2023-08-07T04:59:55;1.10;;;0.43;;
76652;SDS011;65563;45.970;12.680;2023-08-07T05:00:56;0.57;;;0.45;;
76652;SDS011;65563;45.970;12.680;2023-08-07T05:01:57;2.10;;;0.50;;
76652;SDS011;65563;45.970;12.680;2023-08-07T05:02:57;1.48;;;0.43;;
76652;SDS011;65563;45.970;12.680;2023-08-07T05:03:57;0.75;;;0.40;;
76652;SDS011;65563;45.970;12.680;2023-08-07T05:04:58;1.20;;;0.50;;
76652;SDS011;65563;45.970;12.680;2023-08-07T05:05:59;1.65;;;0.50;;
76652;SDS011;65563;45.970;12.680;2023-08-07T05:07:00;2.15;;;0.40;;
76652;SDS011;65563;45.970;12.680;2023-08-07T05:08:00;1.30;;;0.45;;
76652;SDS011;65563;45.970;12.680;2023-08-07T05:09:01;0.40;;;0.40;;
76652;SDS011;65563;45.970;12.680;2023-08-07T05:10:02;1.10;;;0.60;;
76652;SDS011;65563;45.970;12.680;2023-08-07T05:11:03;1.27;;;0.50;;
76652;SDS011;65563;45.970;12.680;2023-08-07T05:12:03;1.75;;;0.70;;
76652;SDS011;65563;45.970;12.680;2023-08-07T05:13:04;2.33;;;0.80;;
76652;SDS011;65563;45.970;12.680;2023-08-07T05:14:05;0.70;;;0.60;;
76652;SDS011;65563;45.970;12.680;2023-08-07T05:15:05;1.67;;;0.70;;
76652;SDS011;65563;45.970;12.680;2023-08-07T05:16:06;1.60;;;1.08;;
76652;SDS011;65563;45.970;12.680;2023-08-07T05:17:06;2.30;;;1.30;;
76652;SDS011;65563;45.970;12.680;2023-08-07T05:18:07;3.10;;;1.30;;
76652;SDS011;65563;45.970;12.680;2023-08-07T05:19:07;2.92;;;1.00;;
76652;SDS011;65563;45.970;12.680;2023-08-07T05:20:07;2.20;;;1.23;;
76652;SDS011;65563;45.970;12.680;2023-08-07T05:21:08;1.58;;;0.90;;
76652;SDS011;65563;45.970;12.680;2023-08-07T05:22:08;2.05;;;1.05;;
76652;SDS011;65563;45.970;12.680;2023-08-07T05:23:09;1.77;;;0.60;;
76652;SDS011;65563;45.970;12.680;2023-08-07T05:24:09;2.45;;;0.63;;
76652;SDS011;65563;45.970;12.680;2023-08-07T05:25:09;0.98;;;0.45;;
76652;SDS011;65563;45.970;12.680;2023-08-07T05:26:10;1.50;;;0.60;;
76652;SDS011;65563;45.970;12.680;2023-08-07T05:27:10;0.85;;;0.63;;
76652;SDS011;65563;45.970;12.680;2023-08-07T05:28:11;1.25;;;0.63;;
76652;SDS011;65563;45.970;12.680;2023-08-07T05:29:11;0.98;;;0.40;;
76652;SDS011;65563;45.970;12.680;2023-08-07T05:30:12;1.50;;;0.30;;
76652;SDS011;65563;45.970;12.680;2023-08-07T05:31:13;0.55;;;0.50;;
76652;SDS011;65563;45.970;12.680;2023-08-07T05:32:13;1.60;;;0.60;;
76652;SDS011;65563;45.970;12.680;2023-08-07T05:33:14;1.52;;;0.57;;
76652;SDS011;65563;45.970;12.680;2023-08-07T05:34:15;2.47;;;0.40;;
76652;SDS011;65563;45.970;12.680;2023-08-07T05:35:15;1.02;;;0.40;;
76652;SDS011;65563;45.970;12.680;2023-08-07T05:36:15;1.17;;;0.40;;
76652;SDS011;65563;45.970;12.680;2023-08-07T05:37:16;1.85;;;0.40;;
76652;SDS011;65563;45.970;12.680;2023-08-07T05:38:16;1.00;;;0.40;;
76652;SDS011;65563;45.970;12.680;2023-08-07T05:39:17;2.78;;;0.45;;
76652;SDS011;65563;45.970;12.680;2023-08-07T05:40:17;1.85;;;0.50;;
76652;SDS011;65563;45.970;12.680;2023-08-07T05:41:18;2.75;;;0.45;;
76652;SDS011;65563;45.970;12.680;2023-08-07T05:42:18;1.08;;;0.40;;
76652;SDS011;65563;45.970;12.680;2023-08-07T05:43:18;1.52;;;0.50;;
76652;SDS011;65563;45.970;12.680;2023-08-07T05:44:19;2.55;;;0.60;;
76652;SDS011;65563;45.970;12.680;2023-08-07T05:45:19;0.40;;;0.40;;
76652;SDS011;65563;45.970;12.680;2023-08-07T05:46:19;0.65;;;0.40;;
76652;SDS011;65563;45.970;12.680;2023-08-07T05:47:20;1.80;;;0.93;;
76652;SDS011;65563;45.970;12.680;2023-08-07T05:48:20;0.57;;;0.45;;
76652;SDS011;65563;45.970;12.680;2023-08-07T05:49:21;1.42;;;0.63;;
76652;SDS011;65563;45.970;12.680;2023-08-07T05:50:21;1.17;;;0.50;;
76652;SDS011;65563;45.970;12.680;2023-08-07T05:51:21;0.90;;;0.60;;
76652;SDS011;65563;45.970;12.680;2023-08-07T05:52:22;1.40;;;0.50;;
76652;SDS011;65563;45.970;12.680;2023-08-07T05:53:22;1.00;;;0.43;;
76652;SDS011;65563;45.970;12.680;2023-08-07T05:54:22;5.15;;;0.60;;
76652;SDS011;65563;45.970;12.680;2023-08-07T05:55:23;0.52;;;0.47;;
76652;SDS011;65563;45.970;12.680;2023-08-07T05:56:23;2.33;;;0.50;;
76652;SDS011;65563;45.970;12.680;2023-08-07T05:57:24;1.33;;;0.40;;
76652;SDS011;65563;45.970;12.680;2023-08-07T05:58:24;0.82;;;0.40;;
76652;SDS011;65563;45.970;12.680;2023-08-07T05:59:24;1.10;;;0.47;;
76652;SDS011;65563;45.970;12.680;2023-08-07T06:00:25;2.03;;;0.50;;
76652;SDS011;65563;45.970;12.680;2023-08-07T06:01:25;1.80;;;0.50;;
76652;SDS011;65563;45.970;12.680;2023-08-07T06:02:26;1.10;;;0.60;;
76652;SDS011;65563;45.970;12.680;2023-08-07T06:03:26;0.70;;;0.45;;
76652;SDS011;65563;45.970;12.680;2023-08-07T06:04:26;1.70;;;0.60;;
76652;SDS011;65563;45.970;12.680;2023-08-07T06:05:27;1.02;;;0.50;;
76652;SDS011;65563;45.970;12.680;2023-08-07T06:06:27;1.25;;;0.50;;